Nautic — A8HQ3 — position and weather

sailwx.info

Track history (hours):
 
Tides and Currents Weather Stations Pressure Air Temp Water Temp Dewpoint Dewpoint Depression Visibility Wind Speed Wind Dir Waves Ship Positions

Nautic

Last reported at 2014-Dec-01 10:31 UTC. Time now 2014-Dec-20 22:55 UTC.
Position N 35°46' E 014°50'.
Warning: this ship's position is 19 days out of date.

Length 274 m; draft 16 m.

Type: Tanker. MMSI: 636012754.

Date/timePositionNaut miles runAvg speedWind from/ knotsBaromVisibWave heightAir tempDewpointWater temp
2014-Dec-01 10:31N 35°46' E 014°50'0 0.0
2014-Dec-01 03:25N 35°46' E 014°50'0 0.0
2014-Nov-30 21:31N 35°46' E 014°50'0 0.0
2014-Nov-30 20:31N 35°46' E 014°50'0 0.0
2014-Nov-30 19:25N 35°46' E 014°50'0 0.0
2014-Nov-30 18:28N 35°46' E 014°50'0 0.1
2014-Nov-30 17:31N 35°46' E 014°50'0 0.1
2014-Nov-30 16:31N 35°46' E 014°50'0 0.0
2014-Nov-30 15:31N 35°46' E 014°50'0 0.0
2014-Nov-30 14:31N 35°46' E 014°50'0 0.0
2014-Nov-30 13:31N 35°46' E 014°50'0 0.0
2014-Nov-30 12:31N 35°46' E 014°50'0 0.0
2014-Nov-30 11:31N 35°46' E 014°50'0 0.0
2014-Nov-30 10:31N 35°46' E 014°50'0 0.0
2014-Nov-30 09:31N 35°46' E 014°50'0 0.0
2014-Nov-30 08:31N 35°46' E 014°50'0 0.0
2014-Nov-30 07:31N 35°46' E 014°50'0 0.0
2014-Nov-30 06:31N 35°46' E 014°50'0 0.0
2014-Nov-30 05:31N 35°46' E 014°50'0 0.0
2014-Nov-30 04:31N 35°46' E 014°50'0 0.0
2014-Nov-30 03:31N 35°46' E 014°50'0 0.0
2014-Nov-30 02:31N 35°46' E 014°50'0 0.0
2014-Nov-30 01:31N 35°46' E 014°50'0 0.0
2014-Nov-30 00:31N 35°46' E 014°50'0 0.0
2014-Nov-29 23:31N 35°46' E 014°50'0 0.1
2014-Nov-29 22:31N 35°46' E 014°50'0 0.0
2014-Nov-29 21:31N 35°46' E 014°50'0 0.0
2014-Nov-29 20:10N 35°46' E 014°50'0 0.0
2014-Nov-29 19:31N 35°46' E 014°50'0 0.1
2014-Nov-29 18:31N 35°46' E 014°50'0 0.1
2014-Nov-29 17:31N 35°46' E 014°50'0 0.0
2014-Nov-29 16:31N 35°46' E 014°50'0 0.0
2014-Nov-29 15:31N 35°46' E 014°50'0 0.2
2014-Nov-29 14:18N 35°46' E 014°50'2 2.4
2014-Nov-29 13:33N 35°44' E 014°51'7 7.4
2014-Nov-29 12:33N 35°37' E 014°53'1 1.1
2014-Nov-29 11:33N 35°36' E 014°53'1 1.3
2014-Nov-29 10:33N 35°37' E 014°53'7 7.1
2014-Nov-29 09:33N 35°44' E 014°55'3 1.4
2014-Nov-29 07:31N 35°43' E 014°58'3 2.8
2014-Nov-29 06:33N 35°46' E 014°57'4 0.5
2014-Nov-28 23:18N 35°42' E 014°57'0 0.5
2014-Nov-28 22:33N 35°42' E 014°57'1 0.5
2014-Nov-28 21:33N 35°41' E 014°57'1 0.5
2014-Nov-28 20:32N 35°41' E 014°57'4 0.4
2014-Nov-28 09:24N 35°42' E 014°52'5 0.5
2014-Nov-27 22:33N 35°37' E 014°50'  
2014-Nov-22 17:23N 35°44' E 014°52'0 0.0
2014-Nov-21 23:17N 35°44' E 014°52'  
Track history (hours):
 
Tides and Currents Weather Stations Pressure Air Temp Water Temp Dewpoint Dewpoint Depression Visibility Wind Speed Wind Dir Waves Ship Positions

Nautic

Last reported at 2014-Dec-01 10:31 UTC. Time now 2014-Dec-20 22:55 UTC.
Position N 35°46' E 014°50'.
Warning: this ship's position is 19 days out of date.

Length 274 m; draft 16 m.

Type: Tanker. MMSI: 636012754.

Date/timePositionNaut miles runAvg speedWind from/ knotsBaromVisibWave heightAir tempDewpointWater temp
2014-Dec-01 10:31N 35°46' E 014°50'0 0.0
2014-Dec-01 03:25N 35°46' E 014°50'0 0.0
2014-Nov-30 21:31N 35°46' E 014°50'0 0.0
2014-Nov-30 20:31N 35°46' E 014°50'0 0.0
2014-Nov-30 19:25N 35°46' E 014°50'0 0.0
2014-Nov-30 18:28N 35°46' E 014°50'0 0.1
2014-Nov-30 17:31N 35°46' E 014°50'0 0.1
2014-Nov-30 16:31N 35°46' E 014°50'0 0.0
2014-Nov-30 15:31N 35°46' E 014°50'0 0.0
2014-Nov-30 14:31N 35°46' E 014°50'0 0.0
2014-Nov-30 13:31N 35°46' E 014°50'0 0.0
2014-Nov-30 12:31N 35°46' E 014°50'0 0.0
2014-Nov-30 11:31N 35°46' E 014°50'0 0.0
2014-Nov-30 10:31N 35°46' E 014°50'0 0.0
2014-Nov-30 09:31N 35°46' E 014°50'0 0.0
2014-Nov-30 08:31N 35°46' E 014°50'0 0.0
2014-Nov-30 07:31N 35°46' E 014°50'0 0.0
2014-Nov-30 06:31N 35°46' E 014°50'0 0.0
2014-Nov-30 05:31N 35°46' E 014°50'0 0.0
2014-Nov-30 04:31N 35°46' E 014°50'0 0.0
2014-Nov-30 03:31N 35°46' E 014°50'0 0.0
2014-Nov-30 02:31N 35°46' E 014°50'0 0.0
2014-Nov-30 01:31N 35°46' E 014°50'0 0.0
2014-Nov-30 00:31N 35°46' E 014°50'0 0.0
2014-Nov-29 23:31N 35°46' E 014°50'0 0.1
2014-Nov-29 22:31N 35°46' E 014°50'0 0.0
2014-Nov-29 21:31N 35°46' E 014°50'0 0.0
2014-Nov-29 20:10N 35°46' E 014°50'0 0.0
2014-Nov-29 19:31N 35°46' E 014°50'0 0.1
2014-Nov-29 18:31N 35°46' E 014°50'0 0.1
2014-Nov-29 17:31N 35°46' E 014°50'0 0.0
2014-Nov-29 16:31N 35°46' E 014°50'0 0.0
2014-Nov-29 15:31N 35°46' E 014°50'0 0.2
2014-Nov-29 14:18N 35°46' E 014°50'2 2.4
2014-Nov-29 13:33N 35°44' E 014°51'7 7.4
2014-Nov-29 12:33N 35°37' E 014°53'1 1.1
2014-Nov-29 11:33N 35°36' E 014°53'1 1.3
2014-Nov-29 10:33N 35°37' E 014°53'7 7.1
2014-Nov-29 09:33N 35°44' E 014°55'3 1.4
2014-Nov-29 07:31N 35°43' E 014°58'3 2.8
2014-Nov-29 06:33N 35°46' E 014°57'4 0.5
2014-Nov-28 23:18N 35°42' E 014°57'0 0.5
2014-Nov-28 22:33N 35°42' E 014°57'1 0.5
2014-Nov-28 21:33N 35°41' E 014°57'1 0.5
2014-Nov-28 20:32N 35°41' E 014°57'4 0.4
2014-Nov-28 09:24N 35°42' E 014°52'5 0.5
2014-Nov-27 22:33N 35°37' E 014°50'  
2014-Nov-22 17:23N 35°44' E 014°52'0 0.0
2014-Nov-21 23:17N 35°44' E 014°52'  

Dump ship's entire track history